Enter the Airport ICAO Code

Search by Airport or City

Current Weather

EIDW | Dublin Airport

Dublin, Ireland

Last Update 25 Minutes Ago

Mostly Cloudy Sky

Temperature of 16 ºC

Moderate Winds from West

Temperature

16 ºC

Dew Point Temperature

13 ºC

Relative Humidity

82.47 %

Wind Direction

West (270º, Without Significant Variations)

Wind Velocity

26 km/h (14 kt)

Gusts

None

Visibility

Greater than 10 Kilometers

Sea Level Pressure

1020 hPa (Hectopascals)

Layers of Clouds

5% to 30% of Sky Covered from 366 mts (1200 ft) Above Ground Level.

60% to 90% of Sky Covered from 610 mts (2000 ft) Above Ground Level.

METAR EIDW 131030Z 27014KT 9999 FEW012 BKN020 16/13 Q1020 NOSIG

Weather Forecast

EIDW | Dublin Airport

Dublin, Ireland

Forecast valid for the next 19 Hours

From now on it is expected:

Mostly Cloudy Sky

In 2 to 4 hours it is expected the begining of:

Moderate Winds from NorthWest

Maximum Temperature

No Data

Minimum Temperature

No Data

TAF EIDW 130500Z 1306/1406 23012KT 9999 -RA BKN012 TEMPO 1306/1309 3000 -RADZ BKN005 PROB40 TEMPO 1306/1309 BKN003 PROB30 TEMPO 1306/1309 1500 BECMG 1308/1310 27010KT BECMG 1309/1311 BKN020 BECMG 1313/1315 30010KT